Les articles d'ExpertMaritime.pro


Votre expert maritime indépendant Xavier Braive est disponible sur la zone de Meschers-sur-Gironde - Port de Meschers - 17132

(Charente-Maritime - Poitou-Charentes)


Voir plan
Situation :

Le Port de Meschers, situé sur la rive droite de la Gironde près de son embouchure, est abrité par tous temps.

Il comprend :

- Un avant-chenal de 250 m de long, large de 8 m qui fait un angle de 8° W avec le Nord vrai, creusé à la cote + 0,50 m ; le vieux havre d’échouage ou « chenal » équipé de quai, cales en 1861.

- Un bassin d’échouage créé 1985 de 121 places sur pontons flottants, creuse à la cote + 1 m.

- Un bassin à flot mis en service en 1990, de 121 places à l’origine, 116 aujourd’hui (on y a placé des bateaux plus grands que prévu), en arrière d’une porte-écluse, T.E. 2,50 m ; le seuil de l’écluse est à la cote + 2 m ; les portes ouvrent quand la mer atteint le niveau + 3,50 m, avec 1,50 m d’eau sur le seuil (les cotes se réfèrent au niveau 0 des cartes marines).
Lat. 45° 33?, 3 N – Long. 00° 56?, 6 W ; carte SHOM 7029.
Distances : LE VERDON : 3,5 M. – ROYAN : 5 M. – PAUILLAC : 23 M. – BORDEAUX : 48 M.

- Une zone de mouillage, ouverte d’Avril à Septembre, de 22 corps morts, sur les vases à l’est du chenal d’accès.

Pratique :

Ville de Meschers : Location des anneaux.
Capitainerie, Tél.: 05.46.02.56.89 – VHF canal 9 –
n° de Fax 05 46 02 34 77 - GSM 06 15 11 23 10
Monsieur KERDUDOU est le capitaine assermenté du port.

SAUVETAGE :
CROSS ETEL, Tél.: O2 .97.553.535.
De juin à septembre Poste de Secours – Plage des Nonnes,
Tél. : 05.46.02.72.92, situé à 1 mille au nord du Port.
Météo affichée à la Capitainerie.
Météo locale sur la zone Port de Meschers
Heure (UTC) Dir.Vent Vit.Vent (nds) Force (Bft) T°min T°max P (mb) Hum.Rel.
25/10/2021 - 18:00:00 au 25/10/2021 - 21:00:00 265° (W) 5 2 14°C 14°C 1022 87 %
25/10/2021 - 21:00:00 au 26/10/2021 - 00:00:00 322° (NW) 5 2 14°C 14°C 1023 87 %
26/10/2021 - 00:00:00 au 26/10/2021 - 03:00:00 017° (NNE) 3 1 13°C 13°C 1024 89 %
26/10/2021 - 03:00:00 au 26/10/2021 - 06:00:00 075° (ENE) 2 1 12°C 12°C 1024 90 %
26/10/2021 - 06:00:00 au 26/10/2021 - 09:00:00 120° (ESE) 3 1 14°C 14°C 1026 84 %
26/10/2021 - 09:00:00 au 26/10/2021 - 12:00:00 211° (SSW) 2 1 17°C 17°C 1025 68 %
26/10/2021 - 12:00:00 au 26/10/2021 - 15:00:00 288° (WNW) 2 1 17°C 17°C 1024 65 %
26/10/2021 - 15:00:00 au 26/10/2021 - 18:00:00 351° (N) 4 2 14°C 14°C 1025 81 %
26/10/2021 - 18:00:00 au 26/10/2021 - 21:00:00 068° (ENE) 5 2 13°C 13°C 1025 85 %
26/10/2021 - 21:00:00 au 27/10/2021 - 00:00:00 111° (ESE) 6 2 12°C 12°C 1025 82 %
27/10/2021 - 00:00:00 au 27/10/2021 - 03:00:00 115° (ESE) 5 2 11°C 11°C 1024 84 %
27/10/2021 - 03:00:00 au 27/10/2021 - 06:00:00 100° (E) 6 2 11°C 11°C 1024 85 %
27/10/2021 - 06:00:00 au 27/10/2021 - 09:00:00 117° (ESE) 5 2 14°C 14°C 1024 69 %
27/10/2021 - 09:00:00 au 27/10/2021 - 12:00:00 119° (ESE) 5 2 18°C 18°C 1023 50 %
27/10/2021 - 12:00:00 au 27/10/2021 - 15:00:00 105° (ESE) 3 1 19°C 19°C 1021 46 %
27/10/2021 - 15:00:00 au 27/10/2021 - 18:00:00 116° (ESE) 4 2 15°C 15°C 1020 56 %
27/10/2021 - 18:00:00 au 27/10/2021 - 21:00:00 138° (SE) 6 2 13°C 13°C 1020 60 %
27/10/2021 - 21:00:00 au 28/10/2021 - 00:00:00 143° (SE) 7 3 12°C 12°C 1019 70 %
28/10/2021 - 00:00:00 au 28/10/2021 - 03:00:00 143° (SE) 8 3 11°C 11°C 1018 72 %
28/10/2021 - 03:00:00 au 28/10/2021 - 06:00:00 142° (SE) 9 3 10°C 10°C 1017 78 %
28/10/2021 - 06:00:00 au 28/10/2021 - 09:00:00 152° (SSE) 11 4 13°C 13°C 1017 69 %
28/10/2021 - 09:00:00 au 28/10/2021 - 12:00:00 177° (S) 9 3 19°C 19°C 1015 53 %
28/10/2021 - 12:00:00 au 28/10/2021 - 15:00:00 196° (SSW) 7 3 19°C 19°C 1013 51 %
28/10/2021 - 15:00:00 au 28/10/2021 - 18:00:00 145° (SE) 7 3 15°C 15°C 1012 66 %
28/10/2021 - 18:00:00 au 28/10/2021 - 21:00:00 148° (SSE) 14 4 15°C 15°C 1011 71 %
28/10/2021 - 21:00:00 au 29/10/2021 - 00:00:00 148° (SSE) 15 4 14°C 14°C 1010 78 %
29/10/2021 - 00:00:00 au 29/10/2021 - 03:00:00 154° (SSE) 16 4 14°C 14°C 1009 82 %
29/10/2021 - 03:00:00 au 29/10/2021 - 06:00:00 163° (SSE) 13 4 14°C 14°C 1009 71 %
29/10/2021 - 06:00:00 au 29/10/2021 - 09:00:00 177° (S) 7 3 15°C 15°C 1010 68 %
29/10/2021 - 09:00:00 au 29/10/2021 - 12:00:00 205° (SSW) 10 3 16°C 16°C 1010 75 %
29/10/2021 - 12:00:00 au 29/10/2021 - 15:00:00 183° (S) 11 4 14°C 14°C 1009 90 %
29/10/2021 - 15:00:00 au 29/10/2021 - 18:00:00 177° (S) 10 3 13°C 13°C 1010 91 %
29/10/2021 - 18:00:00 au 29/10/2021 - 21:00:00 182° (S) 9 3 13°C 13°C 1011 90 %
29/10/2021 - 21:00:00 au 30/10/2021 - 00:00:00 169° (S) 9 3 13°C 13°C 1010 84 %
30/10/2021 - 00:00:00 au 30/10/2021 - 03:00:00 139° (SE) 11 4 13°C 13°C 1008 80 %
30/10/2021 - 03:00:00 au 30/10/2021 - 06:00:00 145° (SE) 14 4 14°C 14°C 1007 89 %
30/10/2021 - 06:00:00 au 30/10/2021 - 09:00:00 144° (SE) 14 4 15°C 15°C 1006 78 %
30/10/2021 - 09:00:00 au 30/10/2021 - 12:00:00 145° (SE) 13 4 15°C 15°C 1004 80 %
30/10/2021 - 12:00:00 au 30/10/2021 - 15:00:00 160° (SSE) 11 4 16°C 16°C 1003 76 %
30/10/2021 - 15:00:00 au 30/10/2021 - 18:00:00 194° (SSW) 12 4 16°C 16°C 1004 83 %
openweathermap
Ces informations sont partiellement extraites de Wikipedia, et des sites pertinents pour cette zone. Compilation d'informations de Xavier Braive.
Xavier Braive, Expert Maritime Plaisance se déplace sur Port de Meschers, Meschers-sur-Gironde, 17132, Charente-Maritime

Welcome to Cross-Channel yachtmen !

we can deliver survey reports in english, in case of dammage or prior to buy / sell a boat in France (pre-purchase survey), and more specifically on the Atlantic coast.

Uw onafhankelijk jachtexpert

verkrijkbaar op de Atlantische kust, bij aankoop of reparatie van jachten (metaal, polyester of composiet). Rapporten in Nederlands

BRAIVE, Xavier
Xavier Braive
Expert Maritime
Nouvelle Aquitaine
France
06 71 50 20 17